Aérodrome :
LOGIN :

S'inscrire | Disclaimer

   EN    FR    IT 

 










Légende :    VFR   VFR Marginal   IFR   IFR Intensif   IFR Très Intensif
Visi : 
Plafond : 
>= 8 km
>= 3000ft
5 à 8 km
1000 à 3000 ft
1500m à 5 km
500 à 1000 ft
800 à 1500m
200 à 500 ft
< 800m
< 200 ft
Symboles :   Orages  Brouillard  Fortes neiges  Fortes précipitations  Vent > 20 kt
SIGMETs :   Divers  Orages  Givrage  Turbulence  Onde Orograph.  Cendres Volcan.







- Altitude de l'aérodrome : 202 ft
- Code IATA : LGW
- Voir les cartes d'approche


EGKK - London Gatwick

DERNIER METAR :
  • 192220Z 20006KT 170V240 9999 BKN011 BKN012 17/16 Q1015

METARs EXPIRÉS :
  • 192150Z 21006KT 180V250 9999 BKN028 18/16 Q1015
  • 192120Z 21005KT 180V240 9999 FEW014 BKN025 17/15 Q1015
  • 192050Z 21007KT 170V240 CAVOK 17/15 Q1015
  • 192020Z 21008KT 170V240 9999 FEW015 18/15 Q1015
  • 191950Z 21007KT 9999 SCT024 18/15 Q1015

TAF AMD TAF EGKK
Valide du 19 à 22h jusqu'au 21 à 00h UTC


192230Z 1922/2024 21010KT 9999 SCT025
TEMPO 1922/1924 7000 -RADZ BKN012
PROB40
TEMPO 2001/2004 8000 -DZ BKN012
PROB40
TEMPO 2004/2007 21015G25KT
BECMG 2007/2010 20018G28KT
TEMPO 2016/2024 21020G38KT
TEMPO 2021/2024 4000 RA BKN010
Pas de NOTAMs connus pour ce terrain.
2 SIGMETs publiés pour la FIR London (EGTT) :
 
Turbulence forte
EGTT SIGMET 15 VALID 192132/200100 EGRR
EGTT LONDON FIR SEV TURB FCST NW OF LINE N5355 W00530 - N5500 E00000 SFC/FL060 MOV N 05KT WKN=
Onde orographique forte
EGTT SIGMET 14 VALID 192100/200100 EGRR
EGTT LONDON FIR SEV MTW FCST WI N5500 E00020 - N5347 E00134 - N5220 W00344 - N5357 W00530 - N5500 W00530 - N5500 E00020 FL030/250 STNR NC=



MET'MAP, la Météo Aéronautique d'un coup d'oeil ! - Copyright ORBIFLY Décembre 2007 - Disclaimer

ORBIFLY MET'MAP TEAM :

Programmation & Développement : Alexandra Zaïnal
Conception & Développement : Baudouin d'Aumeries
Co-Programmation & Développement : Marc-Olivier Méhu
Soutien technique & logistique : Manuel Goepfert

Contact : metmap@orbifly.com




SOURCES & CREDITS :

   NOAA